Pocono Pines, Pennsylvania
Current Conditions -  °F | °C
As of 3:31 PM on Wednesday 26 Nov 2014 (Local Time) from KMPO Reporting Station
Moderate Snow Moderate Snow  
Wind Chill: 21°   Ceiling: 1900
Heat Index: 31°   Visibility: 0.5mi
Dew Point: 27°   Wind: 13mph
Humidity: 85%   Direction: 10°N
Pressure: 29.84"   Gusts: NA
Location:  41.12°N, 75.46°W
Report Text: KMPO 262031Z AUTO 01011KT 1/2SM SN FZFG VV019 M01/M03 A2984 RMK AO2 P0001 T10061028
Loading
Personal Weather Stations






























Interactive Weather Map New forecast layout! Learn more

10-Day Weather Forecast

Advertisements
Track Severe Weather on mobile